sensor_id;sensor_type;location;lat;lon;timestamp;pressure;altitude;pressure_sealevel;temperature;humidity
39949;BME280;29070;48.102;-1.652;2023-02-01T00:04:55;102809.09;;;9.06;77.50
39949;BME280;29070;48.102;-1.652;2023-02-01T00:09:55;102802.34;;;9.03;77.44
39949;BME280;29070;48.102;-1.652;2023-02-01T00:14:56;102784.97;;;9.02;77.37
39949;BME280;29070;48.102;-1.652;2023-02-01T00:19:56;102780.41;;;9.04;77.19
39949;BME280;29070;48.102;-1.652;2023-02-01T00:24:56;102787.72;;;9.01;76.79
39949;BME280;29070;48.102;-1.652;2023-02-01T00:29:57;102788.28;;;9.04;77.11
39949;BME280;29070;48.102;-1.652;2023-02-01T00:34:57;102783.84;;;9.05;77.07
39949;BME280;29070;48.102;-1.652;2023-02-01T00:39:57;102785.78;;;9.03;76.78
39949;BME280;29070;48.102;-1.652;2023-02-01T00:44:58;102777.25;;;9.01;76.69
39949;BME280;29070;48.102;-1.652;2023-02-01T00:49:58;102786.19;;;8.98;76.52
39949;BME280;29070;48.102;-1.652;2023-02-01T00:54:58;102786.59;;;8.93;76.11
39949;BME280;29070;48.102;-1.652;2023-02-01T00:59:59;102779.69;;;8.92;76.38
39949;BME280;29070;48.102;-1.652;2023-02-01T01:04:59;102774.72;;;8.89;76.09
39949;BME280;29070;48.102;-1.652;2023-02-01T01:09:59;102769.75;;;8.86;76.26
39949;BME280;29070;48.102;-1.652;2023-02-01T01:15:00;102764.78;;;8.83;75.69
39949;BME280;29070;48.102;-1.652;2023-02-01T01:20:01;102772.75;;;8.82;76.17
39949;BME280;29070;48.102;-1.652;2023-02-01T01:25:01;102774.69;;;8.80;75.80
39949;BME280;29070;48.102;-1.652;2023-02-01T01:30:02;102775.78;;;8.77;75.54
39949;BME280;29070;48.102;-1.652;2023-02-01T01:35:02;102771.63;;;8.74;75.66
39949;BME280;29070;48.102;-1.652;2023-02-01T01:40:04;102777.41;;;8.68;75.79
39949;BME280;29070;48.102;-1.652;2023-02-01T01:45:51;102779.31;;;8.66;75.98
39949;BME280;29070;48.102;-1.652;2023-02-01T01:50:33;102773.41;;;8.64;75.75
39949;BME280;29070;48.102;-1.652;2023-02-01T01:55:38;102778.63;;;8.64;75.41
39949;BME280;29070;48.102;-1.652;2023-02-01T02:00:43;102776.72;;;8.66;75.84
39949;BME280;29070;48.102;-1.652;2023-02-01T02:05:44;102775.16;;;8.64;75.72
39949;BME280;29070;48.102;-1.652;2023-02-01T02:10:48;102789.22;;;8.63;75.55
39949;BME280;29070;48.102;-1.652;2023-02-01T02:43:20;102799.78;;;8.51;73.84
39949;BME280;29070;48.102;-1.652;2023-02-01T02:48:53;102817.00;;;8.54;74.29
39949;BME280;29070;48.102;-1.652;2023-02-01T02:54:08;102801.31;;;8.54;74.17
39949;BME280;29070;48.102;-1.652;2023-02-01T02:59:30;102802.00;;;8.56;74.46
39949;BME280;29070;48.102;-1.652;2023-02-01T03:04:54;102799.13;;;8.59;74.26
39949;BME280;29070;48.102;-1.652;2023-02-01T03:09:58;102797.22;;;8.61;74.01
39949;BME280;29070;48.102;-1.652;2023-02-01T03:15:08;102792.91;;;8.60;73.85
39949;BME280;29070;48.102;-1.652;2023-02-01T03:20:13;102804.38;;;8.59;74.28
39949;BME280;29070;48.102;-1.652;2023-02-01T03:25:20;102809.59;;;8.59;74.04
39949;BME280;29070;48.102;-1.652;2023-02-01T03:30:27;102808.78;;;8.58;73.87
39949;BME280;29070;48.102;-1.652;2023-02-01T03:40:58;102795.81;;;8.57;73.55
39949;BME280;29070;48.102;-1.652;2023-02-01T03:46:04;102785.59;;;8.54;73.49
39949;BME280;29070;48.102;-1.652;2023-02-01T03:51:06;102781.47;;;8.51;73.33
39949;BME280;29070;48.102;-1.652;2023-02-01T03:56:09;102788.47;;;8.51;73.50
39949;BME280;29070;48.102;-1.652;2023-02-01T04:01:11;102800.75;;;8.50;73.62
39949;BME280;29070;48.102;-1.652;2023-02-01T04:06:12;102788.34;;;8.52;73.62
39949;BME280;29070;48.102;-1.652;2023-02-01T04:11:13;102785.84;;;8.51;73.54
39949;BME280;29070;48.102;-1.652;2023-02-01T04:16:13;102784.22;;;8.50;73.50
39949;BME280;29070;48.102;-1.652;2023-02-01T04:21:14;102787.91;;;8.47;73.35
39949;BME280;29070;48.102;-1.652;2023-02-01T04:26:14;102789.69;;;8.47;73.17
39949;BME280;29070;48.102;-1.652;2023-02-01T04:31:16;102794.94;;;8.47;73.34
39949;BME280;29070;48.102;-1.652;2023-02-01T04:36:17;102805.53;;;8.45;73.13
39949;BME280;29070;48.102;-1.652;2023-02-01T04:41:19;102795.88;;;8.46;73.14
39949;BME280;29070;48.102;-1.652;2023-02-01T04:46:20;102797.69;;;8.45;73.03
39949;BME280;29070;48.102;-1.652;2023-02-01T04:51:20;102815.03;;;8.46;72.82
39949;BME280;29070;48.102;-1.652;2023-02-01T04:56:21;102807.91;;;8.48;73.00
39949;BME280;29070;48.102;-1.652;2023-02-01T05:01:22;102812.31;;;8.48;72.74
39949;BME280;29070;48.102;-1.652;2023-02-01T05:06:23;102819.44;;;8.46;72.54
39949;BME280;29070;48.102;-1.652;2023-02-01T05:11:23;102825.66;;;8.45;72.73
39949;BME280;29070;48.102;-1.652;2023-02-01T05:16:42;102819.44;;;8.46;72.71
39949;BME280;29070;48.102;-1.652;2023-02-01T05:21:42;102819.59;;;8.44;72.34
39949;BME280;29070;48.102;-1.652;2023-02-01T05:26:43;102814.47;;;8.43;72.67
39949;BME280;29070;48.102;-1.652;2023-02-01T05:31:46;102810.88;;;8.44;72.55
39949;BME280;29070;48.102;-1.652;2023-02-01T05:36:47;102814.47;;;8.43;72.58
39949;BME280;29070;48.102;-1.652;2023-02-01T05:41:47;102816.13;;;8.44;72.66
39949;BME280;29070;48.102;-1.652;2023-02-01T05:46:49;102811.25;;;8.39;72.41
39949;BME280;29070;48.102;-1.652;2023-02-01T05:51:49;102825.16;;;8.39;72.42
39949;BME280;29070;48.102;-1.652;2023-02-01T05:56:49;102830.63;;;8.36;72.15
39949;BME280;29070;48.102;-1.652;2023-02-01T06:01:50;102829.00;;;8.35;72.42
39949;BME280;29070;48.102;-1.652;2023-02-01T06:06:50;102846.34;;;8.36;71.66
39949;BME280;29070;48.102;-1.652;2023-02-01T06:11:50;102846.09;;;8.39;71.82
39949;BME280;29070;48.102;-1.652;2023-02-01T06:16:51;102851.00;;;8.44;71.97
39949;BME280;29070;48.102;-1.652;2023-02-01T06:21:51;102852.97;;;8.40;72.15
39949;BME280;29070;48.102;-1.652;2023-02-01T06:26:52;102846.91;;;8.40;71.73
39949;BME280;29070;48.102;-1.652;2023-02-01T06:31:52;102846.22;;;8.38;71.98
39949;BME280;29070;48.102;-1.652;2023-02-01T06:36:52;102846.09;;;8.39;72.03
39949;BME280;29070;48.102;-1.652;2023-02-01T06:41:54;102839.19;;;8.38;71.89
39949;BME280;29070;48.102;-1.652;2023-02-01T06:46:55;102860.13;;;8.38;71.89
39949;BME280;29070;48.102;-1.652;2023-02-01T06:51:55;102866.91;;;8.41;72.02
39949;BME280;29070;48.102;-1.652;2023-02-01T06:56:56;102876.31;;;8.44;72.24
39949;BME280;29070;48.102;-1.652;2023-02-01T07:01:56;102866.81;;;8.43;71.78
39949;BME280;29070;48.102;-1.652;2023-02-01T07:06:56;102866.06;;;8.40;71.86
39949;BME280;29070;48.102;-1.652;2023-02-01T07:11:57;102862.03;;;8.36;71.64
39949;BME280;29070;48.102;-1.652;2023-02-01T07:16:57;102858.59;;;8.36;72.01
39949;BME280;29070;48.102;-1.652;2023-02-01T07:21:57;102857.78;;;8.35;71.58
39949;BME280;29070;48.102;-1.652;2023-02-01T07:26:58;102858.72;;;8.34;71.76
39949;BME280;29070;48.102;-1.652;2023-02-01T07:31:58;102844.25;;;8.30;71.57
39949;BME280;29070;48.102;-1.652;2023-02-01T07:36:58;102854.72;;;8.30;71.67
39949;BME280;29070;48.102;-1.652;2023-02-01T07:41:59;102857.34;;;8.30;71.85
39949;BME280;29070;48.102;-1.652;2023-02-01T07:46:59;102843.56;;;8.28;71.50
39949;BME280;29070;48.102;-1.652;2023-02-01T07:51:59;102840.19;;;8.26;71.71
39949;BME280;29070;48.102;-1.652;2023-02-01T07:57:00;102847.09;;;8.27;71.46
39949;BME280;29070;48.102;-1.652;2023-02-01T08:02:00;102843.56;;;8.28;71.54
39949;BME280;29070;48.102;-1.652;2023-02-01T08:07:00;102845.88;;;8.31;71.82
39949;BME280;29070;48.102;-1.652;2023-02-01T08:12:01;102854.44;;;8.33;71.53
39949;BME280;29070;48.102;-1.652;2023-02-01T08:17:01;102848.25;;;8.34;71.67
39949;BME280;29070;48.102;-1.652;2023-02-01T08:22:01;102848.25;;;8.34;71.26
39949;BME280;29070;48.102;-1.652;2023-02-01T08:27:06;102865.63;;;8.35;71.25
39949;BME280;29070;48.102;-1.652;2023-02-01T08:32:07;102889.59;;;8.40;71.61
39949;BME280;29070;48.102;-1.652;2023-02-01T08:37:07;102875.38;;;8.45;71.58
39949;BME280;29070;48.102;-1.652;2023-02-01T08:42:07;102888.31;;;8.46;71.17
39949;BME280;29070;48.102;-1.652;2023-02-01T08:47:26;102895.09;;;8.49;71.51
39949;BME280;29070;48.102;-1.652;2023-02-01T08:52:26;102905.88;;;8.55;71.16
39949;BME280;29070;48.102;-1.652;2023-02-01T08:57:27;102901.72;;;8.53;71.44
39949;BME280;29070;48.102;-1.652;2023-02-01T09:02:27;102902.16;;;8.58;71.46
39949;BME280;29070;48.102;-1.652;2023-02-01T09:07:28;102913.53;;;8.68;71.29
39949;BME280;29070;48.102;-1.652;2023-02-01T09:12:30;102919.59;;;8.69;70.90
39949;BME280;29070;48.102;-1.652;2023-02-01T09:17:30;102930.91;;;8.69;70.96
39949;BME280;29070;48.102;-1.652;2023-02-01T09:22:31;102941.56;;;8.77;71.22
39949;BME280;29070;48.102;-1.652;2023-02-01T09:27:31;102948.34;;;8.80;71.06
39949;BME280;29070;48.102;-1.652;2023-02-01T09:32:31;102945.31;;;8.85;70.82
39949;BME280;29070;48.102;-1.652;2023-02-01T09:37:32;102949.50;;;8.87;70.82
39949;BME280;29070;48.102;-1.652;2023-02-01T09:47:58;102931.91;;;8.99;70.45
39949;BME280;29070;48.102;-1.652;2023-02-01T09:58:24;102947.41;;;9.12;70.48
39949;BME280;29070;48.102;-1.652;2023-02-01T10:03:29;102948.41;;;9.21;70.53
39949;BME280;29070;48.102;-1.652;2023-02-01T10:08:45;102949.84;;;9.25;70.23
39949;BME280;29070;48.102;-1.652;2023-02-01T10:14:04;102948.47;;;9.30;70.14
39949;BME280;29070;48.102;-1.652;2023-02-01T10:29:58;102941.53;;;9.50;69.18
39949;BME280;29070;48.102;-1.652;2023-02-01T10:35:02;102939.47;;;9.64;69.86
39949;BME280;29070;48.102;-1.652;2023-02-01T10:40:17;102946.41;;;9.74;69.69
39949;BME280;29070;48.102;-1.652;2023-02-01T10:45:21;102929.72;;;9.85;69.57
39949;BME280;29070;48.102;-1.652;2023-02-01T10:56:14;102958.75;;;9.93;69.35
39949;BME280;29070;48.102;-1.652;2023-02-01T11:01:28;102978.06;;;9.92;68.96
39949;BME280;29070;48.102;-1.652;2023-02-01T11:11:53;102993.00;;;10.02;68.78
39949;BME280;29070;48.102;-1.652;2023-02-01T11:16:57;102981.41;;;10.04;68.82
39949;BME280;29070;48.102;-1.652;2023-02-01T11:21:59;102972.47;;;10.07;68.91
39949;BME280;29070;48.102;-1.652;2023-02-01T11:27:02;102969.41;;;10.11;68.43
39949;BME280;29070;48.102;-1.652;2023-02-01T11:32:04;102966.09;;;10.19;68.59
39949;BME280;29070;48.102;-1.652;2023-02-01T11:37:16;102962.94;;;10.25;68.27
39949;BME280;29070;48.102;-1.652;2023-02-01T11:42:18;102955.47;;;10.30;68.12
39949;BME280;29070;48.102;-1.652;2023-02-01T11:47:29;102941.41;;;10.41;68.36
39949;BME280;29070;48.102;-1.652;2023-02-01T12:25:24;102913.72;;;10.86;65.76
39949;BME280;29070;48.102;-1.652;2023-02-01T12:47:00;102899.78;;;11.03;65.48
39949;BME280;29070;48.102;-1.652;2023-02-01T12:52:07;102892.09;;;11.02;65.38
39949;BME280;29070;48.102;-1.652;2023-02-01T12:57:24;102889.16;;;11.05;65.39
39949;BME280;29070;48.102;-1.652;2023-02-01T13:02:42;102894.84;;;11.00;64.44
39949;BME280;29070;48.102;-1.652;2023-02-01T13:13:07;102875.25;;;10.95;64.73
39949;BME280;29070;48.102;-1.652;2023-02-01T13:18:14;102873.84;;;11.00;65.01
39949;BME280;29070;48.102;-1.652;2023-02-01T13:23:27;102882.13;;;11.05;64.62
39949;BME280;29070;48.102;-1.652;2023-02-01T13:28:38;102880.16;;;11.07;64.89
39949;BME280;29070;48.102;-1.652;2023-02-01T13:39:39;102877.69;;;10.96;64.75
39949;BME280;29070;48.102;-1.652;2023-02-01T13:44:46;102870.25;;;10.92;64.31
39949;BME280;29070;48.102;-1.652;2023-02-01T13:49:47;102873.34;;;10.77;64.46
39949;BME280;29070;48.102;-1.652;2023-02-01T13:54:47;102869.75;;;10.78;64.59
39949;BME280;29070;48.102;-1.652;2023-02-01T13:59:52;102871.13;;;10.73;64.40
39949;BME280;29070;48.102;-1.652;2023-02-01T14:04:54;102875.31;;;10.75;64.59
39949;BME280;29070;48.102;-1.652;2023-02-01T14:09:54;102873.38;;;10.67;64.67
39949;BME280;29070;48.102;-1.652;2023-02-01T14:15:22;102875.88;;;10.59;64.09
39949;BME280;29070;48.102;-1.652;2023-02-01T14:20:57;102861.09;;;10.58;64.34
39949;BME280;29070;48.102;-1.652;2023-02-01T14:26:15;102862.34;;;10.54;64.61
39949;BME280;29070;48.102;-1.652;2023-02-01T14:37:04;102871.22;;;10.43;65.10
39949;BME280;29070;48.102;-1.652;2023-02-01T14:52:46;102855.84;;;10.58;65.28
39949;BME280;29070;48.102;-1.652;2023-02-01T14:57:49;102854.06;;;10.59;65.24
39949;BME280;29070;48.102;-1.652;2023-02-01T15:02:52;102861.50;;;10.63;65.35
39949;BME280;29070;48.102;-1.652;2023-02-01T15:07:53;102862.84;;;10.67;65.34
39949;BME280;29070;48.102;-1.652;2023-02-01T15:12:54;102858.72;;;10.65;65.26
39949;BME280;29070;48.102;-1.652;2023-02-01T15:17:58;102858.47;;;10.68;65.37
39949;BME280;29070;48.102;-1.652;2023-02-01T15:23:05;102856.78;;;10.67;65.36
39949;BME280;29070;48.102;-1.652;2023-02-01T15:28:12;102860.63;;;10.73;65.53
39949;BME280;29070;48.102;-1.652;2023-02-01T15:43:24;102866.19;;;10.70;65.42
39949;BME280;29070;48.102;-1.652;2023-02-01T15:48:27;102861.50;;;10.63;65.58
39949;BME280;29070;48.102;-1.652;2023-02-01T15:53:30;102872.00;;;10.63;65.47
39949;BME280;29070;48.102;-1.652;2023-02-01T15:58:31;102873.00;;;10.62;65.49
39949;BME280;29070;48.102;-1.652;2023-02-01T16:03:39;102879.34;;;10.60;65.48
39949;BME280;29070;48.102;-1.652;2023-02-01T16:09:03;102880.72;;;10.54;65.46
39949;BME280;29070;48.102;-1.652;2023-02-01T16:14:09;102875.75;;;10.51;65.55
39949;BME280;29070;48.102;-1.652;2023-02-01T16:19:09;102883.91;;;10.48;65.59
39949;BME280;29070;48.102;-1.652;2023-02-01T16:24:10;102877.97;;;10.46;65.74
39949;BME280;29070;48.102;-1.652;2023-02-01T16:29:10;102880.59;;;10.46;66.38
39949;BME280;29070;48.102;-1.652;2023-02-01T16:34:14;102881.31;;;10.38;65.79
39949;BME280;29070;48.102;-1.652;2023-02-01T16:39:19;102876.19;;;10.37;65.86
39949;BME280;29070;48.102;-1.652;2023-02-01T16:44:19;102888.63;;;10.35;65.90
39949;BME280;29070;48.102;-1.652;2023-02-01T16:49:24;102880.06;;;10.33;65.85
39949;BME280;29070;48.102;-1.652;2023-02-01T16:54:24;102890.81;;;10.29;66.01
39949;BME280;29070;48.102;-1.652;2023-02-01T16:59:26;102893.88;;;10.35;65.94
39949;BME280;29070;48.102;-1.652;2023-02-01T17:04:27;102909.91;;;10.32;66.03
39949;BME280;29070;48.102;-1.652;2023-02-01T17:09:27;102910.19;;;10.28;66.16
39949;BME280;29070;48.102;-1.652;2023-02-01T17:14:30;102910.84;;;10.21;66.28
39949;BME280;29070;48.102;-1.652;2023-02-01T17:19:31;102909.59;;;10.15;66.31
39949;BME280;29070;48.102;-1.652;2023-02-01T17:24:32;102921.34;;;10.11;66.31
39949;BME280;29070;48.102;-1.652;2023-02-01T17:29:32;102922.59;;;10.07;66.16
39949;BME280;29070;48.102;-1.652;2023-02-01T17:34:33;102935.72;;;10.07;66.37
39949;BME280;29070;48.102;-1.652;2023-02-01T17:39:33;102941.91;;;10.06;66.36
39949;BME280;29070;48.102;-1.652;2023-02-01T17:44:56;102938.88;;;10.01;66.63
39949;BME280;29070;48.102;-1.652;2023-02-01T17:49:56;102932.25;;;9.97;66.56
39949;BME280;29070;48.102;-1.652;2023-02-01T17:54:57;102933.63;;;9.91;66.57
39949;BME280;29070;48.102;-1.652;2023-02-01T17:59:57;102934.19;;;9.95;66.68
39949;BME280;29070;48.102;-1.652;2023-02-01T18:04:57;102938.31;;;9.97;66.54
39949;BME280;29070;48.102;-1.652;2023-02-01T18:09:59;102932.38;;;9.95;66.81
39949;BME280;29070;48.102;-1.652;2023-02-01T18:15:01;102928.22;;;9.92;66.67
39949;BME280;29070;48.102;-1.652;2023-02-01T18:20:01;102923.13;;;9.91;66.63
39949;BME280;29070;48.102;-1.652;2023-02-01T18:25:01;102921.72;;;9.87;66.76
39949;BME280;29070;48.102;-1.652;2023-02-01T18:30:02;102920.34;;;9.83;66.88
39949;BME280;29070;48.102;-1.652;2023-02-01T18:35:15;102917.16;;;9.79;66.68
39949;BME280;29070;48.102;-1.652;2023-02-01T18:40:19;102923.66;;;9.75;66.76
39949;BME280;29070;48.102;-1.652;2023-02-01T18:50:32;102922.53;;;9.68;67.19
39949;BME280;29070;48.102;-1.652;2023-02-01T18:55:33;102935.34;;;9.61;67.07
39949;BME280;29070;48.102;-1.652;2023-02-01T19:00:34;102930.91;;;9.62;67.28
39949;BME280;29070;48.102;-1.652;2023-02-01T19:05:34;102944.16;;;9.60;67.14
39949;BME280;29070;48.102;-1.652;2023-02-01T19:10:35;102943.91;;;9.63;67.51
39949;BME280;29070;48.102;-1.652;2023-02-01T19:15:41;102947.06;;;9.57;67.48
39949;BME280;29070;48.102;-1.652;2023-02-01T19:20:41;102948.16;;;9.54;67.54
39949;BME280;29070;48.102;-1.652;2023-02-01T19:25:46;102943.19;;;9.51;67.69
39949;BME280;29070;48.102;-1.652;2023-02-01T19:30:47;102950.34;;;9.49;67.73
39949;BME280;29070;48.102;-1.652;2023-02-01T19:35:48;102952.94;;;9.49;67.69
39949;BME280;29070;48.102;-1.652;2023-02-01T19:40:48;102958.06;;;9.51;67.75
39949;BME280;29070;48.102;-1.652;2023-02-01T19:45:49;102949.78;;;9.46;67.95
39949;BME280;29070;48.102;-1.652;2023-02-01T19:50:49;102956.25;;;9.42;67.81
39949;BME280;29070;48.102;-1.652;2023-02-01T19:55:50;102958.03;;;9.41;68.04
39949;BME280;29070;48.102;-1.652;2023-02-01T20:00:54;102963.66;;;9.37;67.89
39949;BME280;29070;48.102;-1.652;2023-02-01T20:05:56;102961.88;;;9.37;68.02
39949;BME280;29070;48.102;-1.652;2023-02-01T20:10:57;102961.31;;;9.33;68.10
39949;BME280;29070;48.102;-1.652;2023-02-01T20:15:58;102963.22;;;9.31;68.49
39949;BME280;29070;48.102;-1.652;2023-02-01T20:20:59;102964.34;;;9.29;68.29
39949;BME280;29070;48.102;-1.652;2023-02-01T20:26:01;102955.78;;;9.27;68.20
39949;BME280;29070;48.102;-1.652;2023-02-01T20:31:02;102968.31;;;9.23;68.20
39949;BME280;29070;48.102;-1.652;2023-02-01T20:36:03;102969.38;;;9.21;68.32
39949;BME280;29070;48.102;-1.652;2023-02-01T20:41:06;102966.75;;;9.21;68.24
39949;BME280;29070;48.102;-1.652;2023-02-01T20:46:06;102979.16;;;9.19;68.16
39949;BME280;29070;48.102;-1.652;2023-02-01T20:51:09;102972.84;;;9.21;68.52
39949;BME280;29070;48.102;-1.652;2023-02-01T20:56:11;102971.19;;;9.20;68.44
39949;BME280;29070;48.102;-1.652;2023-02-01T21:01:12;102966.19;;;9.17;68.19
39949;BME280;29070;48.102;-1.652;2023-02-01T21:06:13;102968.69;;;9.19;68.35
39949;BME280;29070;48.102;-1.652;2023-02-01T21:11:13;102970.59;;;9.16;68.39
39949;BME280;29070;48.102;-1.652;2023-02-01T21:16:16;102976.53;;;9.19;68.40
39949;BME280;29070;48.102;-1.652;2023-02-01T21:21:19;102973.09;;;9.18;68.51
39949;BME280;29070;48.102;-1.652;2023-02-01T21:26:21;102972.53;;;9.14;68.24
39949;BME280;29070;48.102;-1.652;2023-02-01T21:31:22;102968.25;;;9.13;68.49
39949;BME280;29070;48.102;-1.652;2023-02-01T21:36:24;102983.97;;;9.13;68.34
39949;BME280;29070;48.102;-1.652;2023-02-01T21:41:31;102980.66;;;9.11;68.51
39949;BME280;29070;48.102;-1.652;2023-02-01T21:46:50;102984.50;;;9.07;68.13
39949;BME280;29070;48.102;-1.652;2023-02-01T21:51:51;102988.75;;;9.08;68.27
39949;BME280;29070;48.102;-1.652;2023-02-01T21:56:51;102981.88;;;9.07;68.38
39949;BME280;29070;48.102;-1.652;2023-02-01T22:01:52;102982.13;;;9.04;68.60
39949;BME280;29070;48.102;-1.652;2023-02-01T22:06:52;102988.34;;;9.03;68.76
39949;BME280;29070;48.102;-1.652;2023-02-01T22:11:53;102983.34;;;9.00;68.53
39949;BME280;29070;48.102;-1.652;2023-02-01T22:16:54;102974.91;;;8.96;68.48
39949;BME280;29070;48.102;-1.652;2023-02-01T22:21:54;102978.72;;;8.92;68.24
39949;BME280;29070;48.102;-1.652;2023-02-01T22:26:55;102985.75;;;8.92;68.29
39949;BME280;29070;48.102;-1.652;2023-02-01T22:31:55;102998.84;;;8.92;68.66
39949;BME280;29070;48.102;-1.652;2023-02-01T22:36:55;102992.81;;;8.91;68.63
39949;BME280;29070;48.102;-1.652;2023-02-01T22:41:56;102989.47;;;8.89;68.70
39949;BME280;29070;48.102;-1.652;2023-02-01T22:46:56;102990.31;;;8.90;68.55
39949;BME280;29070;48.102;-1.652;2023-02-01T22:51:56;102993.03;;;8.88;68.24
39949;BME280;29070;48.102;-1.652;2023-02-01T22:56:58;102978.31;;;8.87;68.52
39949;BME280;29070;48.102;-1.652;2023-02-01T23:01:59;102969.88;;;8.84;68.52
39949;BME280;29070;48.102;-1.652;2023-02-01T23:06:59;102978.91;;;8.80;68.16
39949;BME280;29070;48.102;-1.652;2023-02-01T23:12:00;102976.44;;;8.78;68.27
39949;BME280;29070;48.102;-1.652;2023-02-01T23:17:00;102975.34;;;8.81;68.41
39949;BME280;29070;48.102;-1.652;2023-02-01T23:22:00;102983.59;;;8.76;68.59
39949;BME280;29070;48.102;-1.652;2023-02-01T23:27:00;102977.53;;;8.75;68.56
39949;BME280;29070;48.102;-1.652;2023-02-01T23:32:01;102977.31;;;8.67;68.19
39949;BME280;29070;48.102;-1.652;2023-02-01T23:37:02;102971.97;;;8.69;68.31
39949;BME280;29070;48.102;-1.652;2023-02-01T23:42:02;102983.41;;;8.68;68.17
39949;BME280;29070;48.102;-1.652;2023-02-01T23:47:03;102984.75;;;8.62;68.28
39949;BME280;29070;48.102;-1.652;2023-02-01T23:52:04;102982.13;;;8.62;68.30
39949;BME280;29070;48.102;-1.652;2023-02-01T23:57:05;102982.13;;;8.62;68.23
